sensor_id;sensor_type;location;lat;lon;timestamp;temperature;humidity
12771;DHT22;6449;47.666;9.160;2023-05-13T00:01:04;11.50;99.90
12771;DHT22;6449;47.666;9.160;2023-05-13T00:05:59;11.60;99.90
12771;DHT22;6449;47.666;9.160;2023-05-13T00:10:52;11.70;99.90
12771;DHT22;6449;47.666;9.160;2023-05-13T00:15:46;11.70;99.90
12771;DHT22;6449;47.666;9.160;2023-05-13T00:20:39;11.80;99.90
12771;DHT22;6449;47.666;9.160;2023-05-13T00:25:34;11.70;99.90
12771;DHT22;6449;47.666;9.160;2023-05-13T00:30:27;11.60;99.90
12771;DHT22;6449;47.666;9.160;2023-05-13T00:35:21;11.60;99.90
12771;DHT22;6449;47.666;9.160;2023-05-13T00:40:18;11.70;99.90
12771;DHT22;6449;47.666;9.160;2023-05-13T00:45:15;11.80;99.90
12771;DHT22;6449;47.666;9.160;2023-05-13T00:50:09;11.90;99.90
12771;DHT22;6449;47.666;9.160;2023-05-13T00:55:04;12.00;99.90
12771;DHT22;6449;47.666;9.160;2023-05-13T00:59:59;12.10;99.90
12771;DHT22;6449;47.666;9.160;2023-05-13T01:05:17;12.10;99.90
12771;DHT22;6449;47.666;9.160;2023-05-13T01:10:25;12.00;99.90
12771;DHT22;6449;47.666;9.160;2023-05-13T01:15:25;11.80;99.90
12771;DHT22;6449;47.666;9.160;2023-05-13T01:20:22;11.70;99.90
12771;DHT22;6449;47.666;9.160;2023-05-13T01:25:17;11.70;99.90
12771;DHT22;6449;47.666;9.160;2023-05-13T01:30:11;11.70;99.90
12771;DHT22;6449;47.666;9.160;2023-05-13T01:35:07;11.70;99.90
12771;DHT22;6449;47.666;9.160;2023-05-13T01:40:03;11.70;99.90
12771;DHT22;6449;47.666;9.160;2023-05-13T01:45:16;11.80;99.90
12771;DHT22;6449;47.666;9.160;2023-05-13T01:50:10;11.70;99.90
12771;DHT22;6449;47.666;9.160;2023-05-13T01:55:04;11.60;99.90
12771;DHT22;6449;47.666;9.160;2023-05-13T01:59:58;11.60;99.90
12771;DHT22;6449;47.666;9.160;2023-05-13T02:04:52;11.60;99.90
12771;DHT22;6449;47.666;9.160;2023-05-13T02:09:46;11.60;99.90
12771;DHT22;6449;47.666;9.160;2023-05-13T02:14:39;11.60;99.90
12771;DHT22;6449;47.666;9.160;2023-05-13T02:19:33;11.50;99.90
12771;DHT22;6449;47.666;9.160;2023-05-13T02:24:29;11.50;99.90
12771;DHT22;6449;47.666;9.160;2023-05-13T02:29:23;11.60;99.90
12771;DHT22;6449;47.666;9.160;2023-05-13T02:34:16;11.60;99.90
12771;DHT22;6449;47.666;9.160;2023-05-13T02:39:09;11.60;99.90
12771;DHT22;6449;47.666;9.160;2023-05-13T02:44:04;11.70;99.90
12771;DHT22;6449;47.666;9.160;2023-05-13T02:48:57;11.60;99.90
12771;DHT22;6449;47.666;9.160;2023-05-13T02:53:51;11.50;99.90
12771;DHT22;6449;47.666;9.160;2023-05-13T02:58:44;11.50;99.90
12771;DHT22;6449;47.666;9.160;2023-05-13T03:03:39;11.60;99.90
12771;DHT22;6449;47.666;9.160;2023-05-13T03:08:32;11.70;99.90
12771;DHT22;6449;47.666;9.160;2023-05-13T03:13:26;11.80;99.90
12771;DHT22;6449;47.666;9.160;2023-05-13T03:18:19;11.80;99.90
12771;DHT22;6449;47.666;9.160;2023-05-13T03:23:14;11.80;99.90
12771;DHT22;6449;47.666;9.160;2023-05-13T03:28:07;11.80;99.90
12771;DHT22;6449;47.666;9.160;2023-05-13T03:33:01;11.80;99.90
12771;DHT22;6449;47.666;9.160;2023-05-13T03:37:54;11.70;99.90
12771;DHT22;6449;47.666;9.160;2023-05-13T03:42:49;11.80;99.90
12771;DHT22;6449;47.666;9.160;2023-05-13T03:47:42;11.80;99.90
12771;DHT22;6449;47.666;9.160;2023-05-13T03:52:35;11.70;99.90
12771;DHT22;6449;47.666;9.160;2023-05-13T03:57:29;11.80;99.90
12771;DHT22;6449;47.666;9.160;2023-05-13T04:02:24;11.70;99.90
12771;DHT22;6449;47.666;9.160;2023-05-13T04:07:17;11.60;99.90
12771;DHT22;6449;47.666;9.160;2023-05-13T04:12:11;11.60;99.90
12771;DHT22;6449;47.666;9.160;2023-05-13T04:17:05;11.80;99.90
12771;DHT22;6449;47.666;9.160;2023-05-13T04:22:00;11.80;99.90
12771;DHT22;6449;47.666;9.160;2023-05-13T04:26:53;11.80;99.90
12771;DHT22;6449;47.666;9.160;2023-05-13T04:31:46;11.80;99.90
12771;DHT22;6449;47.666;9.160;2023-05-13T04:36:40;11.80;99.90
12771;DHT22;6449;47.666;9.160;2023-05-13T04:41:34;11.80;99.90
12771;DHT22;6449;47.666;9.160;2023-05-13T04:46:28;11.80;99.90
12771;DHT22;6449;47.666;9.160;2023-05-13T04:51:21;11.70;99.90
12771;DHT22;6449;47.666;9.160;2023-05-13T04:56:15;11.70;99.90
12771;DHT22;6449;47.666;9.160;2023-05-13T05:01:10;11.70;99.90
12771;DHT22;6449;47.666;9.160;2023-05-13T05:06:03;11.70;99.90
12771;DHT22;6449;47.666;9.160;2023-05-13T05:10:56;11.80;99.90
12771;DHT22;6449;47.666;9.160;2023-05-13T05:15:51;11.80;99.90
12771;DHT22;6449;47.666;9.160;2023-05-13T05:20:46;11.80;99.90
12771;DHT22;6449;47.666;9.160;2023-05-13T05:25:39;11.70;99.90
12771;DHT22;6449;47.666;9.160;2023-05-13T05:30:32;11.60;99.90
12771;DHT22;6449;47.666;9.160;2023-05-13T05:35:30;11.60;99.90
12771;DHT22;6449;47.666;9.160;2023-05-13T05:40:29;11.50;99.90
12771;DHT22;6449;47.666;9.160;2023-05-13T05:45:22;11.50;99.90
12771;DHT22;6449;47.666;9.160;2023-05-13T05:50:15;11.50;99.90
12771;DHT22;6449;47.666;9.160;2023-05-13T05:55:09;11.50;99.90
12771;DHT22;6449;47.666;9.160;2023-05-13T06:00:05;11.50;99.90
12771;DHT22;6449;47.666;9.160;2023-05-13T06:04:59;11.50;99.90
12771;DHT22;6449;47.666;9.160;2023-05-13T06:09:54;11.50;99.90
12771;DHT22;6449;47.666;9.160;2023-05-13T06:14:47;11.50;99.90
12771;DHT22;6449;47.666;9.160;2023-05-13T06:19:42;11.40;99.90
12771;DHT22;6449;47.666;9.160;2023-05-13T06:24:35;11.40;99.90
12771;DHT22;6449;47.666;9.160;2023-05-13T06:29:29;11.50;99.90
12771;DHT22;6449;47.666;9.160;2023-05-13T06:34:23;11.50;99.90
12771;DHT22;6449;47.666;9.160;2023-05-13T06:39:18;11.80;99.90
12771;DHT22;6449;47.666;9.160;2023-05-13T06:44:11;11.90;99.90
12771;DHT22;6449;47.666;9.160;2023-05-13T06:49:05;11.90;99.90
12771;DHT22;6449;47.666;9.160;2023-05-13T06:53:58;11.80;99.90
12771;DHT22;6449;47.666;9.160;2023-05-13T06:58:54;11.90;99.90
12771;DHT22;6449;47.666;9.160;2023-05-13T07:03:48;11.90;99.90
12771;DHT22;6449;47.666;9.160;2023-05-13T07:08:41;12.10;99.90
12771;DHT22;6449;47.666;9.160;2023-05-13T07:13:34;12.20;99.90
12771;DHT22;6449;47.666;9.160;2023-05-13T07:18:30;12.30;99.90
12771;DHT22;6449;47.666;9.160;2023-05-13T07:23:23;12.30;99.90
12771;DHT22;6449;47.666;9.160;2023-05-13T07:28:17;12.30;99.90
12771;DHT22;6449;47.666;9.160;2023-05-13T07:33:11;12.40;99.90
12771;DHT22;6449;47.666;9.160;2023-05-13T07:38:08;12.50;99.90
12771;DHT22;6449;47.666;9.160;2023-05-13T07:43:02;12.60;99.90
12771;DHT22;6449;47.666;9.160;2023-05-13T07:47:56;12.60;99.90
12771;DHT22;6449;47.666;9.160;2023-05-13T07:52:49;12.60;99.90
12771;DHT22;6449;47.666;9.160;2023-05-13T07:57:44;12.50;99.90
12771;DHT22;6449;47.666;9.160;2023-05-13T08:02:37;12.60;99.90
12771;DHT22;6449;47.666;9.160;2023-05-13T08:07:31;12.60;99.90
12771;DHT22;6449;47.666;9.160;2023-05-13T08:12:24;12.70;99.90
12771;DHT22;6449;47.666;9.160;2023-05-13T08:17:19;12.60;99.90
12771;DHT22;6449;47.666;9.160;2023-05-13T08:22:13;12.80;99.90
12771;DHT22;6449;47.666;9.160;2023-05-13T08:27:06;12.90;99.90
12771;DHT22;6449;47.666;9.160;2023-05-13T08:32:00;12.90;99.90
12771;DHT22;6449;47.666;9.160;2023-05-13T08:36:55;12.90;99.90
12771;DHT22;6449;47.666;9.160;2023-05-13T08:41:48;13.00;99.90
12771;DHT22;6449;47.666;9.160;2023-05-13T08:46:49;13.00;99.90
12771;DHT22;6449;47.666;9.160;2023-05-13T08:51:49;13.10;99.90
12771;DHT22;6449;47.666;9.160;2023-05-13T08:56:44;13.10;99.90
12771;DHT22;6449;47.666;9.160;2023-05-13T09:01:37;13.10;99.90
12771;DHT22;6449;47.666;9.160;2023-05-13T09:06:31;13.00;99.90
12771;DHT22;6449;47.666;9.160;2023-05-13T09:11:27;12.90;99.90
12771;DHT22;6449;47.666;9.160;2023-05-13T09:16:23;12.70;99.90
12771;DHT22;6449;47.666;9.160;2023-05-13T09:21:21;12.70;99.90
12771;DHT22;6449;47.666;9.160;2023-05-13T09:26:25;12.70;99.90
12771;DHT22;6449;47.666;9.160;2023-05-13T09:31:31;12.70;99.90
12771;DHT22;6449;47.666;9.160;2023-05-13T09:36:25;12.70;99.90
12771;DHT22;6449;47.666;9.160;2023-05-13T09:41:19;12.50;99.90
12771;DHT22;6449;47.666;9.160;2023-05-13T09:46:14;12.50;99.90
12771;DHT22;6449;47.666;9.160;2023-05-13T09:51:09;12.60;99.90
12771;DHT22;6449;47.666;9.160;2023-05-13T09:56:03;12.90;99.90
12771;DHT22;6449;47.666;9.160;2023-05-13T10:00:56;12.90;99.90
12771;DHT22;6449;47.666;9.160;2023-05-13T10:05:51;13.20;99.90
12771;DHT22;6449;47.666;9.160;2023-05-13T10:10:49;13.50;99.90
12771;DHT22;6449;47.666;9.160;2023-05-13T10:15:49;13.50;99.90
12771;DHT22;6449;47.666;9.160;2023-05-13T10:20:43;13.80;99.90
12771;DHT22;6449;47.666;9.160;2023-05-13T10:25:38;14.00;99.90
12771;DHT22;6449;47.666;9.160;2023-05-13T10:30:33;13.90;99.90
12771;DHT22;6449;47.666;9.160;2023-05-13T10:35:30;13.90;99.90
12771;DHT22;6449;47.666;9.160;2023-05-13T10:41:10;14.00;99.90
12771;DHT22;6449;47.666;9.160;2023-05-13T10:46:18;13.70;99.90
12771;DHT22;6449;47.666;9.160;2023-05-13T10:51:13;13.80;99.90
12771;DHT22;6449;47.666;9.160;2023-05-13T10:56:08;13.80;99.90
12771;DHT22;6449;47.666;9.160;2023-05-13T11:01:20;13.80;99.90
12771;DHT22;6449;47.666;9.160;2023-05-13T11:06:21;13.90;99.90
12771;DHT22;6449;47.666;9.160;2023-05-13T11:11:23;13.90;99.90
12771;DHT22;6449;47.666;9.160;2023-05-13T11:16:22;13.80;99.90
12771;DHT22;6449;47.666;9.160;2023-05-13T11:21:15;13.50;99.90
12771;DHT22;6449;47.666;9.160;2023-05-13T11:26:10;13.50;99.90
12771;DHT22;6449;47.666;9.160;2023-05-13T11:31:14;13.70;99.90
12771;DHT22;6449;47.666;9.160;2023-05-13T11:36:10;13.70;99.90
12771;DHT22;6449;47.666;9.160;2023-05-13T11:41:04;13.60;99.90
12771;DHT22;6449;47.666;9.160;2023-05-13T11:45:58;13.50;99.90
12771;DHT22;6449;47.666;9.160;2023-05-13T11:50:56;13.30;99.90
12771;DHT22;6449;47.666;9.160;2023-05-13T11:55:50;13.20;99.90
12771;DHT22;6449;47.666;9.160;2023-05-13T12:00:44;13.30;99.90
12771;DHT22;6449;47.666;9.160;2023-05-13T12:05:37;13.20;99.90
12771;DHT22;6449;47.666;9.160;2023-05-13T12:10:31;13.10;99.90
12771;DHT22;6449;47.666;9.160;2023-05-13T12:15:26;13.20;99.90
12771;DHT22;6449;47.666;9.160;2023-05-13T12:20:21;13.10;99.90
12771;DHT22;6449;47.666;9.160;2023-05-13T12:25:37;13.10;99.90
12771;DHT22;6449;47.666;9.160;2023-05-13T12:30:35;13.30;99.90
12771;DHT22;6449;47.666;9.160;2023-05-13T12:35:29;13.40;99.90
12771;DHT22;6449;47.666;9.160;2023-05-13T12:40:25;13.20;99.90
12771;DHT22;6449;47.666;9.160;2023-05-13T12:45:19;13.10;99.90
12771;DHT22;6449;47.666;9.160;2023-05-13T12:50:15;12.90;99.90
12771;DHT22;6449;47.666;9.160;2023-05-13T12:55:08;12.90;99.90
12771;DHT22;6449;47.666;9.160;2023-05-13T13:00:04;13.00;99.90
12771;DHT22;6449;47.666;9.160;2023-05-13T13:04:58;13.00;99.90
12771;DHT22;6449;47.666;9.160;2023-05-13T13:09:53;13.00;99.90
12771;DHT22;6449;47.666;9.160;2023-05-13T13:14:47;13.00;99.90
12771;DHT22;6449;47.666;9.160;2023-05-13T13:19:40;12.80;99.90
12771;DHT22;6449;47.666;9.160;2023-05-13T13:24:34;12.90;99.90
12771;DHT22;6449;47.666;9.160;2023-05-13T13:29:29;13.00;99.90
12771;DHT22;6449;47.666;9.160;2023-05-13T13:34:22;13.30;99.90
12771;DHT22;6449;47.666;9.160;2023-05-13T13:39:15;13.40;99.90
12771;DHT22;6449;47.666;9.160;2023-05-13T13:44:09;13.40;99.90
12771;DHT22;6449;47.666;9.160;2023-05-13T13:49:03;13.50;99.90
12771;DHT22;6449;47.666;9.160;2023-05-13T13:54:14;13.50;99.90
12771;DHT22;6449;47.666;9.160;2023-05-13T13:59:07;13.50;99.90
12771;DHT22;6449;47.666;9.160;2023-05-13T14:04:11;13.60;99.90
12771;DHT22;6449;47.666;9.160;2023-05-13T14:09:06;13.70;99.90
12771;DHT22;6449;47.666;9.160;2023-05-13T14:14:00;13.90;99.90
12771;DHT22;6449;47.666;9.160;2023-05-13T14:18:53;13.90;99.90
12771;DHT22;6449;47.666;9.160;2023-05-13T14:23:48;13.90;99.90
12771;DHT22;6449;47.666;9.160;2023-05-13T14:28:41;13.80;99.90
12771;DHT22;6449;47.666;9.160;2023-05-13T14:33:35;13.80;99.90
12771;DHT22;6449;47.666;9.160;2023-05-13T14:38:28;13.80;99.90
12771;DHT22;6449;47.666;9.160;2023-05-13T14:43:24;13.80;99.90
12771;DHT22;6449;47.666;9.160;2023-05-13T14:48:18;13.80;99.90
12771;DHT22;6449;47.666;9.160;2023-05-13T14:53:11;13.70;99.90
12771;DHT22;6449;47.666;9.160;2023-05-13T14:58:05;13.80;99.90
12771;DHT22;6449;47.666;9.160;2023-05-13T15:03:01;13.90;99.90
12771;DHT22;6449;47.666;9.160;2023-05-13T15:07:55;13.80;99.90
12771;DHT22;6449;47.666;9.160;2023-05-13T15:12:48;13.60;99.90
12771;DHT22;6449;47.666;9.160;2023-05-13T15:17:41;13.50;99.90
12771;DHT22;6449;47.666;9.160;2023-05-13T15:22:36;13.50;99.90
12771;DHT22;6449;47.666;9.160;2023-05-13T15:27:29;13.80;99.90
12771;DHT22;6449;47.666;9.160;2023-05-13T15:32:23;13.80;99.90
12771;DHT22;6449;47.666;9.160;2023-05-13T15:37:16;13.90;99.90
12771;DHT22;6449;47.666;9.160;2023-05-13T15:42:11;14.00;99.90
12771;DHT22;6449;47.666;9.160;2023-05-13T15:47:05;14.00;99.90
12771;DHT22;6449;47.666;9.160;2023-05-13T15:51:59;13.80;99.90
12771;DHT22;6449;47.666;9.160;2023-05-13T15:56:52;13.70;99.90
12771;DHT22;6449;47.666;9.160;2023-05-13T16:01:48;13.30;99.90
12771;DHT22;6449;47.666;9.160;2023-05-13T16:06:42;13.20;99.90
12771;DHT22;6449;47.666;9.160;2023-05-13T16:11:36;13.10;99.90
12771;DHT22;6449;47.666;9.160;2023-05-13T16:16:34;13.10;99.90
12771;DHT22;6449;47.666;9.160;2023-05-13T16:21:29;13.20;99.90
12771;DHT22;6449;47.666;9.160;2023-05-13T16:26:22;13.20;99.90
12771;DHT22;6449;47.666;9.160;2023-05-13T16:31:17;13.40;99.90
12771;DHT22;6449;47.666;9.160;2023-05-13T16:36:10;13.50;99.90
12771;DHT22;6449;47.666;9.160;2023-05-13T16:41:05;13.40;99.90
12771;DHT22;6449;47.666;9.160;2023-05-13T16:45:58;13.40;99.90
12771;DHT22;6449;47.666;9.160;2023-05-13T16:50:52;13.40;99.90
12771;DHT22;6449;47.666;9.160;2023-05-13T16:55:45;13.40;99.90
12771;DHT22;6449;47.666;9.160;2023-05-13T17:00:41;13.50;99.90
12771;DHT22;6449;47.666;9.160;2023-05-13T17:05:35;13.50;99.90
12771;DHT22;6449;47.666;9.160;2023-05-13T17:10:35;13.40;99.90
12771;DHT22;6449;47.666;9.160;2023-05-13T17:15:29;13.40;99.90
12771;DHT22;6449;47.666;9.160;2023-05-13T17:20:23;13.30;99.90
12771;DHT22;6449;47.666;9.160;2023-05-13T17:25:17;13.40;99.90
12771;DHT22;6449;47.666;9.160;2023-05-13T17:30:19;13.50;99.90
12771;DHT22;6449;47.666;9.160;2023-05-13T17:35:14;13.40;99.90
12771;DHT22;6449;47.666;9.160;2023-05-13T17:40:09;13.40;99.90
12771;DHT22;6449;47.666;9.160;2023-05-13T17:45:04;13.20;99.90
12771;DHT22;6449;47.666;9.160;2023-05-13T17:49:58;13.20;99.90
12771;DHT22;6449;47.666;9.160;2023-05-13T17:54:51;13.20;99.90
12771;DHT22;6449;47.666;9.160;2023-05-13T17:59:46;13.20;99.90
12771;DHT22;6449;47.666;9.160;2023-05-13T18:04:42;13.20;99.90
12771;DHT22;6449;47.666;9.160;2023-05-13T18:09:36;13.20;99.90
12771;DHT22;6449;47.666;9.160;2023-05-13T18:14:30;13.20;99.90
12771;DHT22;6449;47.666;9.160;2023-05-13T18:19:26;13.20;99.90
12771;DHT22;6449;47.666;9.160;2023-05-13T18:24:19;13.00;99.90
12771;DHT22;6449;47.666;9.160;2023-05-13T18:29:13;13.10;99.90
12771;DHT22;6449;47.666;9.160;2023-05-13T18:34:06;13.10;99.90
12771;DHT22;6449;47.666;9.160;2023-05-13T18:39:01;13.10;99.90
12771;DHT22;6449;47.666;9.160;2023-05-13T18:43:55;13.00;99.90
12771;DHT22;6449;47.666;9.160;2023-05-13T18:48:48;12.90;99.90
12771;DHT22;6449;47.666;9.160;2023-05-13T18:53:43;12.90;99.90
12771;DHT22;6449;47.666;9.160;2023-05-13T18:58:40;12.90;99.90
12771;DHT22;6449;47.666;9.160;2023-05-13T19:03:33;13.00;99.90
12771;DHT22;6449;47.666;9.160;2023-05-13T19:08:30;13.00;99.90
12771;DHT22;6449;47.666;9.160;2023-05-13T19:13:24;13.00;99.90
12771;DHT22;6449;47.666;9.160;2023-05-13T19:18:38;13.00;99.90
12771;DHT22;6449;47.666;9.160;2023-05-13T19:23:32;12.90;99.90
12771;DHT22;6449;47.666;9.160;2023-05-13T19:28:25;12.70;99.90
12771;DHT22;6449;47.666;9.160;2023-05-13T19:33:19;12.70;99.90
12771;DHT22;6449;47.666;9.160;2023-05-13T19:38:13;12.80;99.90
12771;DHT22;6449;47.666;9.160;2023-05-13T19:43:07;12.70;99.90
12771;DHT22;6449;47.666;9.160;2023-05-13T19:48:00;12.70;99.90
12771;DHT22;6449;47.666;9.160;2023-05-13T19:52:54;12.60;99.90
12771;DHT22;6449;47.666;9.160;2023-05-13T19:57:48;12.50;99.90
12771;DHT22;6449;47.666;9.160;2023-05-13T20:02:42;12.40;99.90
12771;DHT22;6449;47.666;9.160;2023-05-13T20:07:35;12.40;99.90
12771;DHT22;6449;47.666;9.160;2023-05-13T20:12:28;12.20;99.90
12771;DHT22;6449;47.666;9.160;2023-05-13T20:17:23;12.10;99.90
12771;DHT22;6449;47.666;9.160;2023-05-13T20:22:18;12.20;99.90
12771;DHT22;6449;47.666;9.160;2023-05-13T20:27:11;12.20;99.90
12771;DHT22;6449;47.666;9.160;2023-05-13T20:32:06;12.10;99.90
12771;DHT22;6449;47.666;9.160;2023-05-13T20:37:01;12.00;99.90
12771;DHT22;6449;47.666;9.160;2023-05-13T20:41:55;12.00;99.90
12771;DHT22;6449;47.666;9.160;2023-05-13T20:46:48;12.00;99.90
12771;DHT22;6449;47.666;9.160;2023-05-13T20:51:46;12.10;99.90
12771;DHT22;6449;47.666;9.160;2023-05-13T20:56:41;12.00;99.90
12771;DHT22;6449;47.666;9.160;2023-05-13T21:01:35;11.90;99.90
12771;DHT22;6449;47.666;9.160;2023-05-13T21:06:28;12.00;99.90
12771;DHT22;6449;47.666;9.160;2023-05-13T21:11:21;12.00;99.90
12771;DHT22;6449;47.666;9.160;2023-05-13T21:16:16;12.00;99.90
12771;DHT22;6449;47.666;9.160;2023-05-13T21:21:09;12.00;99.90
12771;DHT22;6449;47.666;9.160;2023-05-13T21:26:04;12.00;99.90
12771;DHT22;6449;47.666;9.160;2023-05-13T21:30:57;12.10;99.90
12771;DHT22;6449;47.666;9.160;2023-05-13T21:35:53;12.20;99.90
12771;DHT22;6449;47.666;9.160;2023-05-13T21:40:47;12.20;99.90
12771;DHT22;6449;47.666;9.160;2023-05-13T21:45:40;12.10;99.90
12771;DHT22;6449;47.666;9.160;2023-05-13T21:50:34;12.20;99.90
12771;DHT22;6449;47.666;9.160;2023-05-13T21:55:28;12.30;99.90
12771;DHT22;6449;47.666;9.160;2023-05-13T22:00:25;12.20;99.90
12771;DHT22;6449;47.666;9.160;2023-05-13T22:05:19;12.10;99.90
12771;DHT22;6449;47.666;9.160;2023-05-13T22:10:12;12.10;99.90
12771;DHT22;6449;47.666;9.160;2023-05-13T22:15:08;12.00;99.90
12771;DHT22;6449;47.666;9.160;2023-05-13T22:20:03;12.00;99.90
12771;DHT22;6449;47.666;9.160;2023-05-13T22:24:57;11.90;99.90
12771;DHT22;6449;47.666;9.160;2023-05-13T22:29:50;11.80;99.90
12771;DHT22;6449;47.666;9.160;2023-05-13T22:34:45;11.80;99.90
12771;DHT22;6449;47.666;9.160;2023-05-13T22:39:38;11.80;99.90
12771;DHT22;6449;47.666;9.160;2023-05-13T22:44:31;11.60;99.90
12771;DHT22;6449;47.666;9.160;2023-05-13T22:49:25;11.50;99.90
12771;DHT22;6449;47.666;9.160;2023-05-13T22:54:19;11.50;99.90
12771;DHT22;6449;47.666;9.160;2023-05-13T22:59:12;11.40;99.90
12771;DHT22;6449;47.666;9.160;2023-05-13T23:04:06;11.30;99.90
12771;DHT22;6449;47.666;9.160;2023-05-13T23:08:59;11.10;99.90
12771;DHT22;6449;47.666;9.160;2023-05-13T23:13:54;11.10;99.90
12771;DHT22;6449;47.666;9.160;2023-05-13T23:18:47;11.10;99.90
12771;DHT22;6449;47.666;9.160;2023-05-13T23:23:42;11.00;99.90
12771;DHT22;6449;47.666;9.160;2023-05-13T23:28:35;10.90;99.90
12771;DHT22;6449;47.666;9.160;2023-05-13T23:33:30;10.80;99.90
12771;DHT22;6449;47.666;9.160;2023-05-13T23:38:24;10.80;99.90
12771;DHT22;6449;47.666;9.160;2023-05-13T23:43:17;10.80;99.90
12771;DHT22;6449;47.666;9.160;2023-05-13T23:48:11;10.80;99.90
12771;DHT22;6449;47.666;9.160;2023-05-13T23:53:05;10.70;99.90
12771;DHT22;6449;47.666;9.160;2023-05-13T23:57:59;10.80;99.90
